Main page
METAR-TAF:

METAR-TAF

Airports :

Hamad International Airport

Doha, Qatar

latitude: 25-16-23N, longitude: 51-36-29E, elevation: 4 m

Current weather observation

The report was made 1 hour and 14 minutes ago, at 07:00 UTC
Wind 9 kt from the Northwest, varying between West and North/Northwest
Temperature 40°C
Humidity 16%
Pressure 1001 hPa
Visibility 10 km or more
no clouds below 1500 m and no cumulonimbus

METAR: OTHH 250700Z AUTO 31009KT 270V330 CAVOK 40/09 Q1001 NOSIG

Time: 11:14 (08:14 UTC)

Forecast

The report was made 2 hours and 50 minutes ago, at 05:24 UTC
Forecast valid from 25 at 06 UTC to 26 at 12 UTC
Wind 5 kt from the West/Southwest
Visibility: 9000 m
Becoming
from 25 at 06 UTC to 25 at 08 UTC
Wind 8 kt from the North/Northwest
Probability 30% :
Temporary
from 25 at 11 UTC to 25 at 14 UTC
Wind 5 kt from the Northeast
Becoming
from 25 at 15 UTC to 25 at 17 UTC
Wind 5 kt from the West

TAF: OTHH 250524Z 2506/2612 25005KT 9000 NSC BECMG 2506/2508 33008KT PROB30 TEMPO 2511/2514 04005KT BECMG 2515/2517 27005KT

Weather observations and forecasts of more than 4000 airports (METAR and TAF reports).

The available stations are represented by yellow and red dots on the map.

Hover mouse over dot to see the name of the station.

Then click to see weather observations and forecasts.

To change the map : click on the green buttons with a black cross to zoom in, on the green button with a dash to zoom out, or on the green arrows for adjacent maps.


METAR-TAF: